sensor_id;sensor_type;location;lat;lon;timestamp;temperature;humidity
4578;DHT22;2301;47.354;8.528;2023-04-25T00:00:04;12.30;56.90
4578;DHT22;2301;47.354;8.528;2023-04-25T00:02:35;12.20;56.90
4578;DHT22;2301;47.354;8.528;2023-04-25T00:05:06;12.20;56.00
4578;DHT22;2301;47.354;8.528;2023-04-25T00:07:38;12.30;56.00
4578;DHT22;2301;47.354;8.528;2023-04-25T00:10:09;12.20;56.20
4578;DHT22;2301;47.354;8.528;2023-04-25T00:12:39;12.30;56.40
4578;DHT22;2301;47.354;8.528;2023-04-25T00:15:13;12.20;56.30
4578;DHT22;2301;47.354;8.528;2023-04-25T00:17:44;12.20;56.00
4578;DHT22;2301;47.354;8.528;2023-04-25T00:20:13;12.20;55.90
4578;DHT22;2301;47.354;8.528;2023-04-25T00:22:40;12.20;55.80
4578;DHT22;2301;47.354;8.528;2023-04-25T00:25:07;12.20;56.10
4578;DHT22;2301;47.354;8.528;2023-04-25T00:27:34;12.20;55.80
4578;DHT22;2301;47.354;8.528;2023-04-25T00:30:02;12.10;55.40
4578;DHT22;2301;47.354;8.528;2023-04-25T00:32:30;12.10;55.60
4578;DHT22;2301;47.354;8.528;2023-04-25T00:34:57;12.10;55.60
4578;DHT22;2301;47.354;8.528;2023-04-25T00:37:25;12.20;55.70
4578;DHT22;2301;47.354;8.528;2023-04-25T00:39:52;12.10;55.70
4578;DHT22;2301;47.354;8.528;2023-04-25T00:42:21;12.10;56.00
4578;DHT22;2301;47.354;8.528;2023-04-25T00:44:49;12.00;56.00
4578;DHT22;2301;47.354;8.528;2023-04-25T00:47:17;12.00;56.30
4578;DHT22;2301;47.354;8.528;2023-04-25T00:49:45;12.00;56.90
4578;DHT22;2301;47.354;8.528;2023-04-25T00:52:12;12.00;56.20
4578;DHT22;2301;47.354;8.528;2023-04-25T00:54:40;12.00;56.10
4578;DHT22;2301;47.354;8.528;2023-04-25T00:57:08;12.00;55.90
4578;DHT22;2301;47.354;8.528;2023-04-25T00:59:36;12.00;56.10
4578;DHT22;2301;47.354;8.528;2023-04-25T01:02:04;12.00;56.30
4578;DHT22;2301;47.354;8.528;2023-04-25T01:04:32;12.00;56.30
4578;DHT22;2301;47.354;8.528;2023-04-25T01:07:01;11.90;56.10
4578;DHT22;2301;47.354;8.528;2023-04-25T01:09:30;11.90;56.00
4578;DHT22;2301;47.354;8.528;2023-04-25T01:11:57;11.90;55.90
4578;DHT22;2301;47.354;8.528;2023-04-25T01:14:25;11.90;55.70
4578;DHT22;2301;47.354;8.528;2023-04-25T01:16:52;11.90;55.60
4578;DHT22;2301;47.354;8.528;2023-04-25T01:19:20;11.80;55.70
4578;DHT22;2301;47.354;8.528;2023-04-25T01:21:48;11.80;55.90
4578;DHT22;2301;47.354;8.528;2023-04-25T01:24:15;11.80;56.10
4578;DHT22;2301;47.354;8.528;2023-04-25T01:26:43;11.80;56.90
4578;DHT22;2301;47.354;8.528;2023-04-25T01:29:15;11.80;56.50
4578;DHT22;2301;47.354;8.528;2023-04-25T01:31:42;11.80;57.30
4578;DHT22;2301;47.354;8.528;2023-04-25T01:34:10;11.70;56.90
4578;DHT22;2301;47.354;8.528;2023-04-25T01:36:37;11.80;57.10
4578;DHT22;2301;47.354;8.528;2023-04-25T01:39:06;11.80;57.10
4578;DHT22;2301;47.354;8.528;2023-04-25T01:41:33;11.80;57.10
4578;DHT22;2301;47.354;8.528;2023-04-25T01:44:01;11.80;57.40
4578;DHT22;2301;47.354;8.528;2023-04-25T01:46:28;11.80;57.30
4578;DHT22;2301;47.354;8.528;2023-04-25T01:48:56;11.80;57.40
4578;DHT22;2301;47.354;8.528;2023-04-25T01:51:23;11.80;57.50
4578;DHT22;2301;47.354;8.528;2023-04-25T01:53:50;11.80;57.70
4578;DHT22;2301;47.354;8.528;2023-04-25T01:56:19;11.80;57.90
4578;DHT22;2301;47.354;8.528;2023-04-25T01:58:46;11.70;57.90
4578;DHT22;2301;47.354;8.528;2023-04-25T02:01:14;11.70;58.10
4578;DHT22;2301;47.354;8.528;2023-04-25T02:03:44;11.70;58.20
4578;DHT22;2301;47.354;8.528;2023-04-25T02:06:12;11.60;58.30
4578;DHT22;2301;47.354;8.528;2023-04-25T02:08:39;11.60;58.40
4578;DHT22;2301;47.354;8.528;2023-04-25T02:11:07;11.50;58.90
4578;DHT22;2301;47.354;8.528;2023-04-25T02:13:35;11.40;59.20
4578;DHT22;2301;47.354;8.528;2023-04-25T02:16:02;11.40;59.30
4578;DHT22;2301;47.354;8.528;2023-04-25T02:18:29;11.30;59.50
4578;DHT22;2301;47.354;8.528;2023-04-25T02:20:59;11.20;59.80
4578;DHT22;2301;47.354;8.528;2023-04-25T02:23:26;11.10;59.90
4578;DHT22;2301;47.354;8.528;2023-04-25T02:25:53;11.20;60.20
4578;DHT22;2301;47.354;8.528;2023-04-25T02:28:20;11.10;60.70
4578;DHT22;2301;47.354;8.528;2023-04-25T02:30:49;11.10;60.90
4578;DHT22;2301;47.354;8.528;2023-04-25T02:33:16;11.10;61.20
4578;DHT22;2301;47.354;8.528;2023-04-25T02:35:43;11.00;61.10
4578;DHT22;2301;47.354;8.528;2023-04-25T02:38:10;11.10;61.20
4578;DHT22;2301;47.354;8.528;2023-04-25T02:40:37;11.10;61.10
4578;DHT22;2301;47.354;8.528;2023-04-25T02:43:04;11.10;61.00
4578;DHT22;2301;47.354;8.528;2023-04-25T02:45:32;11.20;60.70
4578;DHT22;2301;47.354;8.528;2023-04-25T02:48:01;11.00;61.00
4578;DHT22;2301;47.354;8.528;2023-04-25T02:50:28;11.10;61.30
4578;DHT22;2301;47.354;8.528;2023-04-25T02:52:55;11.00;61.80
4578;DHT22;2301;47.354;8.528;2023-04-25T02:55:22;11.00;60.70
4578;DHT22;2301;47.354;8.528;2023-04-25T02:57:49;11.00;60.80
4578;DHT22;2301;47.354;8.528;2023-04-25T03:00:16;11.00;60.50
4578;DHT22;2301;47.354;8.528;2023-04-25T03:02:43;11.00;60.90
4578;DHT22;2301;47.354;8.528;2023-04-25T03:05:12;11.00;61.00
4578;DHT22;2301;47.354;8.528;2023-04-25T03:07:39;10.90;60.80
4578;DHT22;2301;47.354;8.528;2023-04-25T03:10:07;11.00;60.80
4578;DHT22;2301;47.354;8.528;2023-04-25T03:12:34;11.00;60.80
4578;DHT22;2301;47.354;8.528;2023-04-25T03:15:01;10.90;60.70
4578;DHT22;2301;47.354;8.528;2023-04-25T03:17:29;10.90;60.80
4578;DHT22;2301;47.354;8.528;2023-04-25T03:19:57;10.90;60.60
4578;DHT22;2301;47.354;8.528;2023-04-25T03:22:26;10.90;60.60
4578;DHT22;2301;47.354;8.528;2023-04-25T03:24:53;10.80;60.40
4578;DHT22;2301;47.354;8.528;2023-04-25T03:27:21;10.80;60.50
4578;DHT22;2301;47.354;8.528;2023-04-25T03:29:53;10.70;60.80
4578;DHT22;2301;47.354;8.528;2023-04-25T03:32:22;10.70;61.30
4578;DHT22;2301;47.354;8.528;2023-04-25T03:34:49;10.70;60.80
4578;DHT22;2301;47.354;8.528;2023-04-25T03:37:15;10.70;60.50
4578;DHT22;2301;47.354;8.528;2023-04-25T03:39:44;10.60;60.70
4578;DHT22;2301;47.354;8.528;2023-04-25T03:42:11;10.70;60.70
4578;DHT22;2301;47.354;8.528;2023-04-25T03:44:38;10.60;60.10
4578;DHT22;2301;47.354;8.528;2023-04-25T03:47:05;10.60;60.00
4578;DHT22;2301;47.354;8.528;2023-04-25T03:49:33;10.60;60.10
4578;DHT22;2301;47.354;8.528;2023-04-25T03:52:00;10.60;60.20
4578;DHT22;2301;47.354;8.528;2023-04-25T03:54:27;10.60;60.20
4578;DHT22;2301;47.354;8.528;2023-04-25T03:56:56;10.60;60.40
4578;DHT22;2301;47.354;8.528;2023-04-25T03:59:23;10.50;60.50
4578;DHT22;2301;47.354;8.528;2023-04-25T04:01:51;10.50;60.90
4578;DHT22;2301;47.354;8.528;2023-04-25T04:04:18;10.50;61.10
4578;DHT22;2301;47.354;8.528;2023-04-25T04:06:45;10.40;61.20
4578;DHT22;2301;47.354;8.528;2023-04-25T04:09:12;10.40;61.20
4578;DHT22;2301;47.354;8.528;2023-04-25T04:11:41;10.40;61.20
4578;DHT22;2301;47.354;8.528;2023-04-25T04:14:12;10.40;61.50
4578;DHT22;2301;47.354;8.528;2023-04-25T04:16:41;10.30;61.50
4578;DHT22;2301;47.354;8.528;2023-04-25T04:19:08;10.30;61.70
4578;DHT22;2301;47.354;8.528;2023-04-25T04:21:35;10.30;61.70
4578;DHT22;2301;47.354;8.528;2023-04-25T04:24:02;10.30;61.60
4578;DHT22;2301;47.354;8.528;2023-04-25T04:26:29;10.30;61.80
4578;DHT22;2301;47.354;8.528;2023-04-25T04:28:58;10.30;62.00
4578;DHT22;2301;47.354;8.528;2023-04-25T04:31:27;10.20;62.00
4578;DHT22;2301;47.354;8.528;2023-04-25T04:33:55;10.20;62.10
4578;DHT22;2301;47.354;8.528;2023-04-25T04:36:22;10.20;62.10
4578;DHT22;2301;47.354;8.528;2023-04-25T04:38:51;10.20;62.30
4578;DHT22;2301;47.354;8.528;2023-04-25T04:41:19;10.20;62.30
4578;DHT22;2301;47.354;8.528;2023-04-25T04:43:46;10.10;62.20
4578;DHT22;2301;47.354;8.528;2023-04-25T04:46:13;10.10;62.10
4578;DHT22;2301;47.354;8.528;2023-04-25T04:48:41;10.20;62.00
4578;DHT22;2301;47.354;8.528;2023-04-25T04:51:09;10.20;62.10
4578;DHT22;2301;47.354;8.528;2023-04-25T04:53:36;10.20;62.20
4578;DHT22;2301;47.354;8.528;2023-04-25T04:56:04;10.20;62.40
4578;DHT22;2301;47.354;8.528;2023-04-25T04:58:31;10.20;62.70
4578;DHT22;2301;47.354;8.528;2023-04-25T05:00:58;10.20;63.00
4578;DHT22;2301;47.354;8.528;2023-04-25T05:03:25;10.20;63.30
4578;DHT22;2301;47.354;8.528;2023-04-25T05:05:54;10.20;63.40
4578;DHT22;2301;47.354;8.528;2023-04-25T05:08:21;10.20;63.60
4578;DHT22;2301;47.354;8.528;2023-04-25T05:10:47;10.20;63.60
4578;DHT22;2301;47.354;8.528;2023-04-25T05:13:14;10.30;63.80
4578;DHT22;2301;47.354;8.528;2023-04-25T05:15:41;10.30;63.90
4578;DHT22;2301;47.354;8.528;2023-04-25T05:18:08;10.30;63.90
4578;DHT22;2301;47.354;8.528;2023-04-25T05:20:37;10.40;63.80
4578;DHT22;2301;47.354;8.528;2023-04-25T05:23:08;10.40;63.10
4578;DHT22;2301;47.354;8.528;2023-04-25T05:25:37;10.40;62.50
4578;DHT22;2301;47.354;8.528;2023-04-25T05:28:04;10.50;62.00
4578;DHT22;2301;47.354;8.528;2023-04-25T05:30:32;10.60;61.60
4578;DHT22;2301;47.354;8.528;2023-04-25T05:33:00;10.60;60.80
4578;DHT22;2301;47.354;8.528;2023-04-25T05:35:27;10.60;60.50
4578;DHT22;2301;47.354;8.528;2023-04-25T05:37:54;10.70;60.40
4578;DHT22;2301;47.354;8.528;2023-04-25T05:40:23;10.70;60.00
4578;DHT22;2301;47.354;8.528;2023-04-25T05:42:50;10.70;59.80
4578;DHT22;2301;47.354;8.528;2023-04-25T05:45:17;10.70;59.60
4578;DHT22;2301;47.354;8.528;2023-04-25T05:47:44;10.80;59.60
4578;DHT22;2301;47.354;8.528;2023-04-25T05:50:11;10.80;59.80
4578;DHT22;2301;47.354;8.528;2023-04-25T05:52:38;10.90;59.80
4578;DHT22;2301;47.354;8.528;2023-04-25T05:55:06;10.90;59.70
4578;DHT22;2301;47.354;8.528;2023-04-25T05:57:34;10.90;59.60
4578;DHT22;2301;47.354;8.528;2023-04-25T06:00:01;10.90;59.50
4578;DHT22;2301;47.354;8.528;2023-04-25T06:02:29;10.90;59.50
4578;DHT22;2301;47.354;8.528;2023-04-25T06:04:56;11.00;59.60
4578;DHT22;2301;47.354;8.528;2023-04-25T06:07:23;11.00;59.40
4578;DHT22;2301;47.354;8.528;2023-04-25T06:09:50;11.00;59.40
4578;DHT22;2301;47.354;8.528;2023-04-25T06:12:17;11.00;59.40
4578;DHT22;2301;47.354;8.528;2023-04-25T06:14:46;11.00;59.30
4578;DHT22;2301;47.354;8.528;2023-04-25T06:17:13;11.00;59.40
4578;DHT22;2301;47.354;8.528;2023-04-25T06:19:40;11.00;59.40
4578;DHT22;2301;47.354;8.528;2023-04-25T06:22:07;11.00;60.10
4578;DHT22;2301;47.354;8.528;2023-04-25T06:24:34;11.10;59.80
4578;DHT22;2301;47.354;8.528;2023-04-25T06:27:02;11.10;60.20
4578;DHT22;2301;47.354;8.528;2023-04-25T06:29:29;11.10;61.30
4578;DHT22;2301;47.354;8.528;2023-04-25T06:31:57;11.00;62.90
4578;DHT22;2301;47.354;8.528;2023-04-25T06:34:24;10.90;64.70
4578;DHT22;2301;47.354;8.528;2023-04-25T06:36:51;10.70;65.40
4578;DHT22;2301;47.354;8.528;2023-04-25T06:39:19;10.70;66.20
4578;DHT22;2301;47.354;8.528;2023-04-25T06:41:50;10.50;66.50
4578;DHT22;2301;47.354;8.528;2023-04-25T06:44:19;10.50;66.50
4578;DHT22;2301;47.354;8.528;2023-04-25T06:46:48;10.40;67.40
4578;DHT22;2301;47.354;8.528;2023-04-25T06:49:17;10.30;67.60
4578;DHT22;2301;47.354;8.528;2023-04-25T06:51:44;10.30;67.80
4578;DHT22;2301;47.354;8.528;2023-04-25T06:54:11;10.20;68.10
4578;DHT22;2301;47.354;8.528;2023-04-25T06:56:38;10.20;68.40
4578;DHT22;2301;47.354;8.528;2023-04-25T06:59:05;10.10;68.00
4578;DHT22;2301;47.354;8.528;2023-04-25T07:01:32;10.10;68.80
4578;DHT22;2301;47.354;8.528;2023-04-25T07:03:59;10.10;69.10
4578;DHT22;2301;47.354;8.528;2023-04-25T07:06:27;10.10;69.20
4578;DHT22;2301;47.354;8.528;2023-04-25T07:08:54;10.10;69.10
4578;DHT22;2301;47.354;8.528;2023-04-25T07:11:21;10.00;69.60
4578;DHT22;2301;47.354;8.528;2023-04-25T07:13:48;10.10;70.00
4578;DHT22;2301;47.354;8.528;2023-04-25T07:16:16;10.00;69.90
4578;DHT22;2301;47.354;8.528;2023-04-25T07:18:43;10.00;69.70
4578;DHT22;2301;47.354;8.528;2023-04-25T07:21:10;10.00;70.60
4578;DHT22;2301;47.354;8.528;2023-04-25T07:23:38;9.90;71.30
4578;DHT22;2301;47.354;8.528;2023-04-25T07:26:06;10.00;70.80
4578;DHT22;2301;47.354;8.528;2023-04-25T07:28:33;10.00;70.70
4578;DHT22;2301;47.354;8.528;2023-04-25T07:31:00;10.00;70.80
4578;DHT22;2301;47.354;8.528;2023-04-25T07:33:27;10.10;70.60
4578;DHT22;2301;47.354;8.528;2023-04-25T07:35:55;10.10;70.90
4578;DHT22;2301;47.354;8.528;2023-04-25T07:38:22;10.10;71.20
4578;DHT22;2301;47.354;8.528;2023-04-25T07:40:52;10.10;72.10
4578;DHT22;2301;47.354;8.528;2023-04-25T07:43:19;10.10;71.20
4578;DHT22;2301;47.354;8.528;2023-04-25T07:45:46;10.20;72.30
4578;DHT22;2301;47.354;8.528;2023-04-25T07:48:17;10.20;71.80
4578;DHT22;2301;47.354;8.528;2023-04-25T07:50:45;10.20;71.60
4578;DHT22;2301;47.354;8.528;2023-04-25T07:53:12;10.20;71.50
4578;DHT22;2301;47.354;8.528;2023-04-25T07:55:39;10.20;71.50
4578;DHT22;2301;47.354;8.528;2023-04-25T07:58:08;10.20;71.90
4578;DHT22;2301;47.354;8.528;2023-04-25T08:00:35;10.30;72.50
4578;DHT22;2301;47.354;8.528;2023-04-25T08:03:03;10.30;72.10
4578;DHT22;2301;47.354;8.528;2023-04-25T08:05:30;10.30;72.60
4578;DHT22;2301;47.354;8.528;2023-04-25T08:07:57;10.40;72.70
4578;DHT22;2301;47.354;8.528;2023-04-25T08:10:24;10.50;72.70
4578;DHT22;2301;47.354;8.528;2023-04-25T08:12:51;10.50;72.70
4578;DHT22;2301;47.354;8.528;2023-04-25T08:15:20;10.70;73.30
4578;DHT22;2301;47.354;8.528;2023-04-25T08:17:47;10.80;74.30
4578;DHT22;2301;47.354;8.528;2023-04-25T08:20:14;10.90;73.90
4578;DHT22;2301;47.354;8.528;2023-04-25T08:22:41;11.10;72.80
4578;DHT22;2301;47.354;8.528;2023-04-25T08:25:08;11.40;73.30
4578;DHT22;2301;47.354;8.528;2023-04-25T08:27:35;11.90;73.90
4578;DHT22;2301;47.354;8.528;2023-04-25T08:30:02;12.20;73.40
4578;DHT22;2301;47.354;8.528;2023-04-25T08:32:32;12.20;71.40
4578;DHT22;2301;47.354;8.528;2023-04-25T08:34:59;12.50;71.10
4578;DHT22;2301;47.354;8.528;2023-04-25T08:37:26;12.80;71.60
4578;DHT22;2301;47.354;8.528;2023-04-25T08:39:53;13.00;71.20
4578;DHT22;2301;47.354;8.528;2023-04-25T08:42:21;13.20;70.90
4578;DHT22;2301;47.354;8.528;2023-04-25T08:44:49;13.40;70.50
4578;DHT22;2301;47.354;8.528;2023-04-25T08:47:19;13.80;71.10
4578;DHT22;2301;47.354;8.528;2023-04-25T08:49:49;13.90;69.30
4578;DHT22;2301;47.354;8.528;2023-04-25T08:52:22;13.90;67.40
4578;DHT22;2301;47.354;8.528;2023-04-25T08:54:49;13.90;66.90
4578;DHT22;2301;47.354;8.528;2023-04-25T08:57:19;13.90;67.30
4578;DHT22;2301;47.354;8.528;2023-04-25T08:59:49;13.90;66.10
4578;DHT22;2301;47.354;8.528;2023-04-25T09:02:20;13.80;65.50
4578;DHT22;2301;47.354;8.528;2023-04-25T09:04:54;13.80;66.00
4578;DHT22;2301;47.354;8.528;2023-04-25T09:07:24;13.70;66.30
4578;DHT22;2301;47.354;8.528;2023-04-25T09:09:54;13.60;66.30
4578;DHT22;2301;47.354;8.528;2023-04-25T09:12:27;13.50;66.30
4578;DHT22;2301;47.354;8.528;2023-04-25T09:15:06;13.50;66.10
4578;DHT22;2301;47.354;8.528;2023-04-25T09:17:37;13.50;66.10
4578;DHT22;2301;47.354;8.528;2023-04-25T09:20:09;13.30;65.70
4578;DHT22;2301;47.354;8.528;2023-04-25T09:22:36;13.30;65.70
4578;DHT22;2301;47.354;8.528;2023-04-25T09:25:07;13.00;66.80
4578;DHT22;2301;47.354;8.528;2023-04-25T09:27:35;12.90;66.70
4578;DHT22;2301;47.354;8.528;2023-04-25T09:30:03;12.90;66.80
4578;DHT22;2301;47.354;8.528;2023-04-25T09:32:30;13.00;66.70
4578;DHT22;2301;47.354;8.528;2023-04-25T09:34:57;13.00;66.80
4578;DHT22;2301;47.354;8.528;2023-04-25T09:37:27;12.90;66.30
4578;DHT22;2301;47.354;8.528;2023-04-25T09:39:56;12.70;66.40
4578;DHT22;2301;47.354;8.528;2023-04-25T09:42:25;12.60;67.10
4578;DHT22;2301;47.354;8.528;2023-04-25T09:44:53;12.60;67.40
4578;DHT22;2301;47.354;8.528;2023-04-25T09:47:23;12.60;67.20
4578;DHT22;2301;47.354;8.528;2023-04-25T09:49:51;12.50;66.50
4578;DHT22;2301;47.354;8.528;2023-04-25T09:52:19;12.40;66.20
4578;DHT22;2301;47.354;8.528;2023-04-25T09:54:49;12.40;65.80
4578;DHT22;2301;47.354;8.528;2023-04-25T09:57:17;12.60;66.80
4578;DHT22;2301;47.354;8.528;2023-04-25T09:59:45;12.80;66.20
4578;DHT22;2301;47.354;8.528;2023-04-25T10:02:14;12.90;65.30
4578;DHT22;2301;47.354;8.528;2023-04-25T10:04:41;13.10;65.30
4578;DHT22;2301;47.354;8.528;2023-04-25T10:07:09;13.60;65.80
4578;DHT22;2301;47.354;8.528;2023-04-25T10:09:37;14.20;64.70
4578;DHT22;2301;47.354;8.528;2023-04-25T10:12:08;14.40;63.10
4578;DHT22;2301;47.354;8.528;2023-04-25T10:14:35;14.60;62.70
4578;DHT22;2301;47.354;8.528;2023-04-25T10:17:02;14.60;63.00
4578;DHT22;2301;47.354;8.528;2023-04-25T10:19:29;14.50;63.00
4578;DHT22;2301;47.354;8.528;2023-04-25T10:22:05;14.40;63.20
4578;DHT22;2301;47.354;8.528;2023-04-25T10:24:35;14.20;63.30
4578;DHT22;2301;47.354;8.528;2023-04-25T10:27:02;14.20;63.80
4578;DHT22;2301;47.354;8.528;2023-04-25T10:29:31;14.10;63.70
4578;DHT22;2301;47.354;8.528;2023-04-25T10:31:58;14.00;63.00
4578;DHT22;2301;47.354;8.528;2023-04-25T10:34:37;13.90;62.40
4578;DHT22;2301;47.354;8.528;2023-04-25T10:37:05;14.00;62.20
4578;DHT22;2301;47.354;8.528;2023-04-25T10:39:34;14.50;61.90
4578;DHT22;2301;47.354;8.528;2023-04-25T10:42:02;15.10;60.50
4578;DHT22;2301;47.354;8.528;2023-04-25T10:44:31;15.80;60.50
4578;DHT22;2301;47.354;8.528;2023-04-25T10:47:00;15.90;58.90
4578;DHT22;2301;47.354;8.528;2023-04-25T10:49:30;15.80;57.50
4578;DHT22;2301;47.354;8.528;2023-04-25T10:52:14;15.60;56.80
4578;DHT22;2301;47.354;8.528;2023-04-25T10:54:42;15.40;56.90
4578;DHT22;2301;47.354;8.528;2023-04-25T10:57:31;15.20;57.00
4578;DHT22;2301;47.354;8.528;2023-04-25T11:00:01;15.50;57.60
4578;DHT22;2301;47.354;8.528;2023-04-25T11:02:30;16.00;57.20
4578;DHT22;2301;47.354;8.528;2023-04-25T11:04:58;16.30;55.90
4578;DHT22;2301;47.354;8.528;2023-04-25T11:07:32;16.30;55.10
4578;DHT22;2301;47.354;8.528;2023-04-25T11:10:01;16.10;54.90
4578;DHT22;2301;47.354;8.528;2023-04-25T11:12:30;15.90;55.40
4578;DHT22;2301;47.354;8.528;2023-04-25T11:15:04;15.80;55.90
4578;DHT22;2301;47.354;8.528;2023-04-25T11:17:34;15.60;55.60
4578;DHT22;2301;47.354;8.528;2023-04-25T11:20:02;15.50;55.80
4578;DHT22;2301;47.354;8.528;2023-04-25T11:22:33;15.40;55.90
4578;DHT22;2301;47.354;8.528;2023-04-25T11:25:05;15.30;55.40
4578;DHT22;2301;47.354;8.528;2023-04-25T11:27:32;15.40;55.50
4578;DHT22;2301;47.354;8.528;2023-04-25T11:30:11;15.60;55.30
4578;DHT22;2301;47.354;8.528;2023-04-25T11:32:40;15.90;55.10
4578;DHT22;2301;47.354;8.528;2023-04-25T11:35:07;16.10;55.00
4578;DHT22;2301;47.354;8.528;2023-04-25T11:37:35;16.40;54.40
4578;DHT22;2301;47.354;8.528;2023-04-25T11:40:03;16.70;53.50
4578;DHT22;2301;47.354;8.528;2023-04-25T11:42:31;16.70;52.40
4578;DHT22;2301;47.354;8.528;2023-04-25T11:44:58;16.60;52.00
4578;DHT22;2301;47.354;8.528;2023-04-25T11:47:30;16.40;51.90
4578;DHT22;2301;47.354;8.528;2023-04-25T11:49:58;16.30;52.10
4578;DHT22;2301;47.354;8.528;2023-04-25T11:52:36;16.10;52.50
4578;DHT22;2301;47.354;8.528;2023-04-25T11:55:05;16.00;53.00
4578;DHT22;2301;47.354;8.528;2023-04-25T11:57:33;15.90;53.30
4578;DHT22;2301;47.354;8.528;2023-04-25T12:00:10;16.10;53.60
4578;DHT22;2301;47.354;8.528;2023-04-25T12:02:45;16.30;53.40
4578;DHT22;2301;47.354;8.528;2023-04-25T12:05:14;16.50;53.30
4578;DHT22;2301;47.354;8.528;2023-04-25T12:07:42;16.50;52.00
4578;DHT22;2301;47.354;8.528;2023-04-25T12:10:11;16.30;50.90
4578;DHT22;2301;47.354;8.528;2023-04-25T12:12:41;16.20;51.60
4578;DHT22;2301;47.354;8.528;2023-04-25T12:15:10;16.20;52.10
4578;DHT22;2301;47.354;8.528;2023-04-25T12:17:38;16.20;51.00
4578;DHT22;2301;47.354;8.528;2023-04-25T12:20:13;16.20;50.80
4578;DHT22;2301;47.354;8.528;2023-04-25T12:22:41;16.40;50.90
4578;DHT22;2301;47.354;8.528;2023-04-25T12:25:10;16.40;50.50
4578;DHT22;2301;47.354;8.528;2023-04-25T12:27:37;16.30;49.00
4578;DHT22;2301;47.354;8.528;2023-04-25T12:30:06;16.10;50.00
4578;DHT22;2301;47.354;8.528;2023-04-25T12:32:35;16.10;50.00
4578;DHT22;2301;47.354;8.528;2023-04-25T12:35:05;15.90;49.70
4578;DHT22;2301;47.354;8.528;2023-04-25T12:37:36;15.80;50.00
4578;DHT22;2301;47.354;8.528;2023-04-25T12:40:05;15.70;50.20
4578;DHT22;2301;47.354;8.528;2023-04-25T12:42:32;15.50;51.30
4578;DHT22;2301;47.354;8.528;2023-04-25T12:45:00;15.40;53.00
4578;DHT22;2301;47.354;8.528;2023-04-25T12:47:27;15.30;53.80
4578;DHT22;2301;47.354;8.528;2023-04-25T12:49:54;15.20;54.50
4578;DHT22;2301;47.354;8.528;2023-04-25T12:52:21;15.20;55.00
4578;DHT22;2301;47.354;8.528;2023-04-25T12:54:49;15.20;55.10
4578;DHT22;2301;47.354;8.528;2023-04-25T12:57:16;15.20;55.20
4578;DHT22;2301;47.354;8.528;2023-04-25T12:59:43;15.20;55.40
4578;DHT22;2301;47.354;8.528;2023-04-25T13:02:10;15.20;55.80
4578;DHT22;2301;47.354;8.528;2023-04-25T13:04:38;15.20;54.90
4578;DHT22;2301;47.354;8.528;2023-04-25T13:07:05;15.20;53.60
4578;DHT22;2301;47.354;8.528;2023-04-25T13:09:32;15.10;53.60
4578;DHT22;2301;47.354;8.528;2023-04-25T13:12:00;15.00;55.50
4578;DHT22;2301;47.354;8.528;2023-04-25T13:14:27;15.00;56.30
4578;DHT22;2301;47.354;8.528;2023-04-25T13:16:54;15.10;56.90
4578;DHT22;2301;47.354;8.528;2023-04-25T13:19:21;15.20;56.90
4578;DHT22;2301;47.354;8.528;2023-04-25T13:21:48;15.20;56.80
4578;DHT22;2301;47.354;8.528;2023-04-25T13:24:15;15.00;57.10
4578;DHT22;2301;47.354;8.528;2023-04-25T13:26:42;15.00;57.10
4578;DHT22;2301;47.354;8.528;2023-04-25T13:29:10;15.10;57.30
4578;DHT22;2301;47.354;8.528;2023-04-25T13:31:37;15.00;57.30
4578;DHT22;2301;47.354;8.528;2023-04-25T13:34:04;14.90;56.80
4578;DHT22;2301;47.354;8.528;2023-04-25T13:36:31;14.90;57.10
4578;DHT22;2301;47.354;8.528;2023-04-25T13:38:58;14.80;57.30
4578;DHT22;2301;47.354;8.528;2023-04-25T13:41:25;14.70;57.70
4578;DHT22;2301;47.354;8.528;2023-04-25T13:43:52;14.70;58.50
4578;DHT22;2301;47.354;8.528;2023-04-25T13:46:21;14.80;58.90
4578;DHT22;2301;47.354;8.528;2023-04-25T13:48:48;14.90;58.50
4578;DHT22;2301;47.354;8.528;2023-04-25T13:51:17;14.90;58.10
4578;DHT22;2301;47.354;8.528;2023-04-25T13:53:47;15.10;58.30
4578;DHT22;2301;47.354;8.528;2023-04-25T13:56:16;15.10;58.00
4578;DHT22;2301;47.354;8.528;2023-04-25T13:58:45;15.10;57.60
4578;DHT22;2301;47.354;8.528;2023-04-25T14:01:11;15.10;56.70
4578;DHT22;2301;47.354;8.528;2023-04-25T14:03:40;14.90;55.70
4578;DHT22;2301;47.354;8.528;2023-04-25T14:06:07;14.90;56.10
4578;DHT22;2301;47.354;8.528;2023-04-25T14:08:35;14.90;56.20
4578;DHT22;2301;47.354;8.528;2023-04-25T14:11:02;14.90;56.30
4578;DHT22;2301;47.354;8.528;2023-04-25T14:13:29;14.90;56.30
4578;DHT22;2301;47.354;8.528;2023-04-25T14:15:57;14.90;55.50
4578;DHT22;2301;47.354;8.528;2023-04-25T14:18:24;14.80;55.70
4578;DHT22;2301;47.354;8.528;2023-04-25T14:20:53;14.70;55.90
4578;DHT22;2301;47.354;8.528;2023-04-25T14:23:19;14.70;56.30
4578;DHT22;2301;47.354;8.528;2023-04-25T14:25:47;14.70;56.80
4578;DHT22;2301;47.354;8.528;2023-04-25T14:28:14;14.60;56.80
4578;DHT22;2301;47.354;8.528;2023-04-25T14:30:41;14.70;57.20
4578;DHT22;2301;47.354;8.528;2023-04-25T14:33:08;14.80;57.60
4578;DHT22;2301;47.354;8.528;2023-04-25T14:35:35;14.90;58.10
4578;DHT22;2301;47.354;8.528;2023-04-25T14:38:03;15.00;57.40
4578;DHT22;2301;47.354;8.528;2023-04-25T14:40:30;15.00;57.00
4578;DHT22;2301;47.354;8.528;2023-04-25T14:42:57;15.00;56.90
4578;DHT22;2301;47.354;8.528;2023-04-25T14:45:25;14.90;56.60
4578;DHT22;2301;47.354;8.528;2023-04-25T14:47:52;14.80;56.40
4578;DHT22;2301;47.354;8.528;2023-04-25T14:50:19;14.80;56.60
4578;DHT22;2301;47.354;8.528;2023-04-25T14:52:46;14.70;57.00
4578;DHT22;2301;47.354;8.528;2023-04-25T14:55:14;14.70;57.70
4578;DHT22;2301;47.354;8.528;2023-04-25T14:57:41;14.60;58.60
4578;DHT22;2301;47.354;8.528;2023-04-25T15:00:09;14.50;58.60
4578;DHT22;2301;47.354;8.528;2023-04-25T15:02:39;14.50;58.80
4578;DHT22;2301;47.354;8.528;2023-04-25T15:05:06;14.40;59.20
4578;DHT22;2301;47.354;8.528;2023-04-25T15:07:33;14.40;59.60
4578;DHT22;2301;47.354;8.528;2023-04-25T15:10:01;14.40;59.70
4578;DHT22;2301;47.354;8.528;2023-04-25T15:12:30;14.30;59.70
4578;DHT22;2301;47.354;8.528;2023-04-25T15:14:57;14.20;59.80
4578;DHT22;2301;47.354;8.528;2023-04-25T15:17:24;14.10;59.10
4578;DHT22;2301;47.354;8.528;2023-04-25T15:19:51;13.90;59.10
4578;DHT22;2301;47.354;8.528;2023-04-25T15:22:20;13.90;58.90
4578;DHT22;2301;47.354;8.528;2023-04-25T15:24:46;13.80;58.80
4578;DHT22;2301;47.354;8.528;2023-04-25T15:27:14;13.80;58.80
4578;DHT22;2301;47.354;8.528;2023-04-25T15:29:43;13.80;58.20
4578;DHT22;2301;47.354;8.528;2023-04-25T15:32:11;13.80;58.50
4578;DHT22;2301;47.354;8.528;2023-04-25T15:34:37;13.60;58.90
4578;DHT22;2301;47.354;8.528;2023-04-25T15:37:04;13.50;59.20
4578;DHT22;2301;47.354;8.528;2023-04-25T15:39:33;13.50;59.10
4578;DHT22;2301;47.354;8.528;2023-04-25T15:42:02;13.50;59.20
4578;DHT22;2301;47.354;8.528;2023-04-25T15:44:32;13.50;59.40
4578;DHT22;2301;47.354;8.528;2023-04-25T15:47:01;13.50;59.50
4578;DHT22;2301;47.354;8.528;2023-04-25T15:49:28;13.60;60.60
4578;DHT22;2301;47.354;8.528;2023-04-25T15:51:55;13.60;60.80
4578;DHT22;2301;47.354;8.528;2023-04-25T15:54:22;13.50;60.20
4578;DHT22;2301;47.354;8.528;2023-04-25T15:56:49;13.40;60.20
4578;DHT22;2301;47.354;8.528;2023-04-25T15:59:16;13.40;60.40
4578;DHT22;2301;47.354;8.528;2023-04-25T16:01:43;13.40;60.00
4578;DHT22;2301;47.354;8.528;2023-04-25T16:04:11;13.60;60.70
4578;DHT22;2301;47.354;8.528;2023-04-25T16:06:38;13.70;59.80